sensor_id;sensor_type;location;lat;lon;timestamp;P1;durP1;ratioP1;P2;durP2;ratioP2
64643;SDS011;51056;50.330;7.914;2022-10-16T00:03:02;27.80;;;5.00;;
64643;SDS011;51056;50.330;7.914;2022-10-16T00:06:06;19.60;;;5.25;;
64643;SDS011;51056;50.330;7.914;2022-10-16T00:09:15;27.77;;;5.70;;
64643;SDS011;51056;50.330;7.914;2022-10-16T00:12:19;6.90;;;5.30;;
64643;SDS011;51056;50.330;7.914;2022-10-16T00:15:23;10.23;;;5.65;;
64643;SDS011;51056;50.330;7.914;2022-10-16T00:18:27;15.23;;;6.97;;
64643;SDS011;51056;50.330;7.914;2022-10-16T00:21:33;9.10;;;7.43;;
64643;SDS011;51056;50.330;7.914;2022-10-16T00:24:56;12.47;;;6.77;;
64643;SDS011;51056;50.330;7.914;2022-10-16T00:28:00;14.65;;;6.03;;
64643;SDS011;51056;50.330;7.914;2022-10-16T00:31:04;13.75;;;5.57;;
64643;SDS011;51056;50.330;7.914;2022-10-16T00:34:09;15.20;;;8.27;;
64643;SDS011;51056;50.330;7.914;2022-10-16T00:37:13;14.10;;;6.82;;
64643;SDS011;51056;50.330;7.914;2022-10-16T00:40:16;22.73;;;8.05;;
64643;SDS011;51056;50.330;7.914;2022-10-16T00:46:59;15.43;;;6.22;;
64643;SDS011;51056;50.330;7.914;2022-10-16T00:50:07;15.18;;;6.78;;
64643;SDS011;51056;50.330;7.914;2022-10-16T00:53:19;15.93;;;5.35;;
64643;SDS011;51056;50.330;7.914;2022-10-16T00:56:23;21.48;;;5.22;;
64643;SDS011;51056;50.330;7.914;2022-10-16T00:59:30;29.58;;;4.80;;
64643;SDS011;51056;50.330;7.914;2022-10-16T01:02:36;15.82;;;5.25;;
64643;SDS011;51056;50.330;7.914;2022-10-16T01:05:42;6.75;;;4.75;;
64643;SDS011;51056;50.330;7.914;2022-10-16T01:09:00;18.33;;;5.80;;
64643;SDS011;51056;50.330;7.914;2022-10-16T01:12:31;22.73;;;6.05;;
64643;SDS011;51056;50.330;7.914;2022-10-16T01:15:49;23.80;;;7.03;;
64643;SDS011;51056;50.330;7.914;2022-10-16T01:19:12;15.60;;;6.80;;
64643;SDS011;51056;50.330;7.914;2022-10-16T01:22:24;18.13;;;6.20;;
64643;SDS011;51056;50.330;7.914;2022-10-16T01:29:30;35.33;;;6.40;;
64643;SDS011;51056;50.330;7.914;2022-10-16T01:32:33;36.78;;;5.50;;
64643;SDS011;51056;50.330;7.914;2022-10-16T01:35:46;15.60;;;4.93;;
64643;SDS011;51056;50.330;7.914;2022-10-16T01:38:54;15.32;;;5.70;;
64643;SDS011;51056;50.330;7.914;2022-10-16T01:42:22;14.02;;;5.30;;
64643;SDS011;51056;50.330;7.914;2022-10-16T01:45:31;13.57;;;3.92;;
64643;SDS011;51056;50.330;7.914;2022-10-16T01:48:36;14.50;;;3.95;;
64643;SDS011;51056;50.330;7.914;2022-10-16T01:51:41;13.15;;;4.43;;
64643;SDS011;51056;50.330;7.914;2022-10-16T01:54:49;11.98;;;3.67;;
64643;SDS011;51056;50.330;7.914;2022-10-16T01:57:56;15.27;;;3.97;;
64643;SDS011;51056;50.330;7.914;2022-10-16T02:01:03;16.25;;;4.15;;
64643;SDS011;51056;50.330;7.914;2022-10-16T02:04:21;18.63;;;4.75;;
64643;SDS011;51056;50.330;7.914;2022-10-16T02:07:32;10.70;;;4.03;;
64643;SDS011;51056;50.330;7.914;2022-10-16T02:10:36;12.35;;;4.80;;
64643;SDS011;51056;50.330;7.914;2022-10-16T02:13:45;10.10;;;4.38;;
64643;SDS011;51056;50.330;7.914;2022-10-16T02:16:52;15.73;;;5.28;;
64643;SDS011;51056;50.330;7.914;2022-10-16T02:19:57;10.32;;;4.03;;
64643;SDS011;51056;50.330;7.914;2022-10-16T02:23:03;20.52;;;4.35;;
64643;SDS011;51056;50.330;7.914;2022-10-16T02:26:07;13.45;;;4.43;;
64643;SDS011;51056;50.330;7.914;2022-10-16T02:29:16;9.48;;;4.75;;
64643;SDS011;51056;50.330;7.914;2022-10-16T02:32:24;13.25;;;4.70;;
64643;SDS011;51056;50.330;7.914;2022-10-16T02:35:33;12.35;;;4.03;;
64643;SDS011;51056;50.330;7.914;2022-10-16T02:38:38;10.13;;;4.88;;
64643;SDS011;51056;50.330;7.914;2022-10-16T02:41:47;15.38;;;4.43;;
64643;SDS011;51056;50.330;7.914;2022-10-16T02:44:50;13.13;;;3.92;;
64643;SDS011;51056;50.330;7.914;2022-10-16T02:50:57;7.88;;;3.47;;
64643;SDS011;51056;50.330;7.914;2022-10-16T02:54:02;12.48;;;3.70;;
64643;SDS011;51056;50.330;7.914;2022-10-16T02:57:06;12.15;;;3.50;;
64643;SDS011;51056;50.330;7.914;2022-10-16T03:03:14;8.32;;;3.13;;
64643;SDS011;51056;50.330;7.914;2022-10-16T03:06:18;6.82;;;2.80;;
64643;SDS011;51056;50.330;7.914;2022-10-16T03:09:23;8.18;;;3.53;;
64643;SDS011;51056;50.330;7.914;2022-10-16T03:12:30;6.57;;;2.40;;
64643;SDS011;51056;50.330;7.914;2022-10-16T03:15:34;4.50;;;2.70;;
64643;SDS011;51056;50.330;7.914;2022-10-16T03:18:37;9.73;;;2.80;;
64643;SDS011;51056;50.330;7.914;2022-10-16T03:21:40;11.00;;;2.70;;
64643;SDS011;51056;50.330;7.914;2022-10-16T03:24:44;6.80;;;2.55;;
64643;SDS011;51056;50.330;7.914;2022-10-16T03:27:48;4.90;;;2.53;;
64643;SDS011;51056;50.330;7.914;2022-10-16T03:30:51;8.25;;;2.42;;
64643;SDS011;51056;50.330;7.914;2022-10-16T03:33:56;5.47;;;1.70;;
64643;SDS011;51056;50.330;7.914;2022-10-16T03:37:00;3.60;;;1.75;;
64643;SDS011;51056;50.330;7.914;2022-10-16T03:40:05;5.95;;;1.55;;
64643;SDS011;51056;50.330;7.914;2022-10-16T03:43:08;6.05;;;2.20;;
64643;SDS011;51056;50.330;7.914;2022-10-16T03:46:11;5.30;;;1.65;;
64643;SDS011;51056;50.330;7.914;2022-10-16T03:49:15;6.95;;;1.77;;
64643;SDS011;51056;50.330;7.914;2022-10-16T03:52:18;7.47;;;1.90;;
64643;SDS011;51056;50.330;7.914;2022-10-16T03:55:22;5.55;;;1.42;;
64643;SDS011;51056;50.330;7.914;2022-10-16T03:58:26;7.88;;;1.90;;
64643;SDS011;51056;50.330;7.914;2022-10-16T04:01:29;6.47;;;2.05;;
64643;SDS011;51056;50.330;7.914;2022-10-16T04:04:33;14.18;;;2.15;;
64643;SDS011;51056;50.330;7.914;2022-10-16T04:07:37;7.63;;;2.42;;
64643;SDS011;51056;50.330;7.914;2022-10-16T04:10:47;8.05;;;2.35;;
64643;SDS011;51056;50.330;7.914;2022-10-16T04:13:51;7.53;;;1.48;;
64643;SDS011;51056;50.330;7.914;2022-10-16T04:16:56;3.88;;;1.30;;
64643;SDS011;51056;50.330;7.914;2022-10-16T04:20:00;9.80;;;1.75;;
64643;SDS011;51056;50.330;7.914;2022-10-16T04:23:04;7.85;;;1.55;;
64643;SDS011;51056;50.330;7.914;2022-10-16T04:26:08;5.50;;;1.50;;
64643;SDS011;51056;50.330;7.914;2022-10-16T04:29:13;5.53;;;1.73;;
64643;SDS011;51056;50.330;7.914;2022-10-16T04:32:16;4.45;;;1.65;;
64643;SDS011;51056;50.330;7.914;2022-10-16T04:35:20;8.32;;;2.25;;
64643;SDS011;51056;50.330;7.914;2022-10-16T04:38:25;4.82;;;1.40;;
64643;SDS011;51056;50.330;7.914;2022-10-16T04:41:31;5.10;;;1.33;;
64643;SDS011;51056;50.330;7.914;2022-10-16T04:44:36;5.68;;;1.42;;
64643;SDS011;51056;50.330;7.914;2022-10-16T04:47:40;5.15;;;1.50;;
64643;SDS011;51056;50.330;7.914;2022-10-16T04:50:44;6.82;;;1.55;;
64643;SDS011;51056;50.330;7.914;2022-10-16T04:53:47;4.20;;;1.58;;
64643;SDS011;51056;50.330;7.914;2022-10-16T04:56:51;9.73;;;1.38;;
64643;SDS011;51056;50.330;7.914;2022-10-16T04:59:55;7.22;;;1.70;;
64643;SDS011;51056;50.330;7.914;2022-10-16T05:02:59;5.82;;;1.17;;
64643;SDS011;51056;50.330;7.914;2022-10-16T05:06:07;8.63;;;1.30;;
64643;SDS011;51056;50.330;7.914;2022-10-16T05:09:11;10.18;;;1.35;;
64643;SDS011;51056;50.330;7.914;2022-10-16T05:12:15;3.42;;;1.73;;
64643;SDS011;51056;50.330;7.914;2022-10-16T05:15:19;3.85;;;1.17;;
64643;SDS011;51056;50.330;7.914;2022-10-16T05:18:23;5.22;;;1.60;;
64643;SDS011;51056;50.330;7.914;2022-10-16T05:21:27;5.60;;;1.35;;
64643;SDS011;51056;50.330;7.914;2022-10-16T05:24:31;12.25;;;1.38;;
64643;SDS011;51056;50.330;7.914;2022-10-16T05:27:35;9.48;;;1.23;;
64643;SDS011;51056;50.330;7.914;2022-10-16T05:30:39;4.65;;;1.27;;
64643;SDS011;51056;50.330;7.914;2022-10-16T05:33:42;7.57;;;1.00;;
64643;SDS011;51056;50.330;7.914;2022-10-16T05:36:48;10.57;;;1.50;;
64643;SDS011;51056;50.330;7.914;2022-10-16T05:39:54;6.28;;;1.20;;
64643;SDS011;51056;50.330;7.914;2022-10-16T05:42:58;7.55;;;1.58;;
64643;SDS011;51056;50.330;7.914;2022-10-16T05:46:03;10.23;;;1.73;;
64643;SDS011;51056;50.330;7.914;2022-10-16T05:49:08;6.57;;;0.90;;
64643;SDS011;51056;50.330;7.914;2022-10-16T05:52:11;8.80;;;1.75;;
64643;SDS011;51056;50.330;7.914;2022-10-16T05:55:14;7.50;;;1.63;;
64643;SDS011;51056;50.330;7.914;2022-10-16T05:58:22;14.43;;;1.50;;
64643;SDS011;51056;50.330;7.914;2022-10-16T06:01:29;10.02;;;1.50;;
64643;SDS011;51056;50.330;7.914;2022-10-16T06:04:34;5.03;;;1.40;;
64643;SDS011;51056;50.330;7.914;2022-10-16T06:07:39;4.50;;;1.17;;
64643;SDS011;51056;50.330;7.914;2022-10-16T06:13:51;6.75;;;1.40;;
64643;SDS011;51056;50.330;7.914;2022-10-16T06:16:55;9.48;;;1.77;;
64643;SDS011;51056;50.330;7.914;2022-10-16T06:19:59;12.38;;;2.50;;
64643;SDS011;51056;50.330;7.914;2022-10-16T06:23:03;8.70;;;1.70;;
64643;SDS011;51056;50.330;7.914;2022-10-16T06:26:10;5.85;;;1.45;;
64643;SDS011;51056;50.330;7.914;2022-10-16T06:29:18;11.20;;;1.90;;
64643;SDS011;51056;50.330;7.914;2022-10-16T06:32:22;8.27;;;1.42;;
64643;SDS011;51056;50.330;7.914;2022-10-16T06:35:26;6.68;;;1.40;;
64643;SDS011;51056;50.330;7.914;2022-10-16T06:38:35;9.40;;;1.65;;
64643;SDS011;51056;50.330;7.914;2022-10-16T06:41:39;10.02;;;1.23;;
64643;SDS011;51056;50.330;7.914;2022-10-16T06:45:04;9.10;;;1.17;;
64643;SDS011;51056;50.330;7.914;2022-10-16T06:48:08;5.38;;;1.23;;
64643;SDS011;51056;50.330;7.914;2022-10-16T06:51:13;9.80;;;1.80;;
64643;SDS011;51056;50.330;7.914;2022-10-16T06:54:17;11.85;;;2.22;;
64643;SDS011;51056;50.330;7.914;2022-10-16T06:57:20;6.65;;;1.00;;
64643;SDS011;51056;50.330;7.914;2022-10-16T07:00:24;6.90;;;1.20;;
64643;SDS011;51056;50.330;7.914;2022-10-16T07:03:27;9.00;;;1.58;;
64643;SDS011;51056;50.330;7.914;2022-10-16T07:06:32;10.65;;;1.90;;
64643;SDS011;51056;50.330;7.914;2022-10-16T07:09:36;4.80;;;1.40;;
64643;SDS011;51056;50.330;7.914;2022-10-16T07:18:47;5.97;;;1.38;;
64643;SDS011;51056;50.330;7.914;2022-10-16T07:21:52;4.75;;;1.33;;
64643;SDS011;51056;50.330;7.914;2022-10-16T07:24:56;8.10;;;1.40;;
64643;SDS011;51056;50.330;7.914;2022-10-16T07:28:00;5.80;;;1.60;;
64643;SDS011;51056;50.330;7.914;2022-10-16T07:31:06;10.68;;;1.60;;
64643;SDS011;51056;50.330;7.914;2022-10-16T07:34:14;11.82;;;2.30;;
64643;SDS011;51056;50.330;7.914;2022-10-16T07:37:19;10.35;;;2.05;;
64643;SDS011;51056;50.330;7.914;2022-10-16T07:40:24;9.20;;;2.20;;
64643;SDS011;51056;50.330;7.914;2022-10-16T07:43:30;7.57;;;1.27;;
64643;SDS011;51056;50.330;7.914;2022-10-16T07:46:34;5.15;;;1.45;;
64643;SDS011;51056;50.330;7.914;2022-10-16T07:49:38;6.00;;;1.23;;
64643;SDS011;51056;50.330;7.914;2022-10-16T07:52:43;7.40;;;1.50;;
64643;SDS011;51056;50.330;7.914;2022-10-16T07:55:48;8.27;;;1.45;;
64643;SDS011;51056;50.330;7.914;2022-10-16T07:58:52;6.88;;;1.98;;
64643;SDS011;51056;50.330;7.914;2022-10-16T08:01:57;10.18;;;1.42;;
64643;SDS011;51056;50.330;7.914;2022-10-16T08:05:00;6.13;;;2.00;;
64643;SDS011;51056;50.330;7.914;2022-10-16T08:08:05;6.78;;;1.40;;
64643;SDS011;51056;50.330;7.914;2022-10-16T08:11:09;5.60;;;0.98;;
64643;SDS011;51056;50.330;7.914;2022-10-16T08:14:15;3.80;;;0.65;;
64643;SDS011;51056;50.330;7.914;2022-10-16T08:20:21;5.90;;;1.30;;
64643;SDS011;51056;50.330;7.914;2022-10-16T08:23:25;5.20;;;1.40;;
64643;SDS011;51056;50.330;7.914;2022-10-16T08:26:30;5.53;;;1.70;;
64643;SDS011;51056;50.330;7.914;2022-10-16T08:29:33;6.97;;;1.50;;
64643;SDS011;51056;50.330;7.914;2022-10-16T08:32:36;8.90;;;0.93;;
64643;SDS011;51056;50.330;7.914;2022-10-16T08:35:40;3.80;;;0.70;;
64643;SDS011;51056;50.330;7.914;2022-10-16T08:38:47;3.70;;;0.80;;
64643;SDS011;51056;50.330;7.914;2022-10-16T08:42:04;3.85;;;0.90;;
64643;SDS011;51056;50.330;7.914;2022-10-16T08:48:51;3.97;;;0.80;;
64643;SDS011;51056;50.330;7.914;2022-10-16T08:51:56;3.63;;;0.55;;
64643;SDS011;51056;50.330;7.914;2022-10-16T08:55:00;7.93;;;0.82;;
64643;SDS011;51056;50.330;7.914;2022-10-16T08:58:13;2.15;;;0.47;;
64643;SDS011;51056;50.330;7.914;2022-10-16T09:01:19;3.70;;;1.17;;
64643;SDS011;51056;50.330;7.914;2022-10-16T09:14:07;6.60;;;0.88;;
64643;SDS011;51056;50.330;7.914;2022-10-16T09:24:24;6.07;;;2.35;;
64643;SDS011;51056;50.330;7.914;2022-10-16T09:27:31;9.40;;;2.40;;
64643;SDS011;51056;50.330;7.914;2022-10-16T09:30:37;8.45;;;1.92;;
64643;SDS011;51056;50.330;7.914;2022-10-16T09:33:42;10.88;;;2.15;;
64643;SDS011;51056;50.330;7.914;2022-10-16T09:36:51;7.45;;;2.30;;
64643;SDS011;51056;50.330;7.914;2022-10-16T09:39:56;5.55;;;1.50;;
64643;SDS011;51056;50.330;7.914;2022-10-16T09:43:07;3.30;;;1.40;;
64643;SDS011;51056;50.330;7.914;2022-10-16T09:46:34;5.53;;;1.35;;
64643;SDS011;51056;50.330;7.914;2022-10-16T09:49:50;4.25;;;1.33;;
64643;SDS011;51056;50.330;7.914;2022-10-16T09:53:12;3.65;;;1.20;;
64643;SDS011;51056;50.330;7.914;2022-10-16T09:56:25;4.03;;;1.25;;
64643;SDS011;51056;50.330;7.914;2022-10-16T09:59:31;7.20;;;1.90;;
64643;SDS011;51056;50.330;7.914;2022-10-16T10:02:35;3.47;;;1.30;;
64643;SDS011;51056;50.330;7.914;2022-10-16T10:05:47;3.97;;;1.20;;
64643;SDS011;51056;50.330;7.914;2022-10-16T10:12:00;3.88;;;1.50;;
64643;SDS011;51056;50.330;7.914;2022-10-16T10:18:24;8.13;;;3.25;;
64643;SDS011;51056;50.330;7.914;2022-10-16T10:21:29;2.97;;;1.33;;
64643;SDS011;51056;50.330;7.914;2022-10-16T10:24:36;1.50;;;0.52;;
64643;SDS011;51056;50.330;7.914;2022-10-16T10:31:18;2.05;;;1.13;;
64643;SDS011;51056;50.330;7.914;2022-10-16T10:44:44;1.35;;;0.32;;
64643;SDS011;51056;50.330;7.914;2022-10-16T10:51:13;4.90;;;0.50;;
64643;SDS011;51056;50.330;7.914;2022-10-16T10:58:10;1.55;;;0.40;;
64643;SDS011;51056;50.330;7.914;2022-10-16T11:05:31;3.58;;;0.35;;
64643;SDS011;51056;50.330;7.914;2022-10-16T11:08:48;3.78;;;0.55;;
64643;SDS011;51056;50.330;7.914;2022-10-16T11:12:00;3.28;;;0.32;;
64643;SDS011;51056;50.330;7.914;2022-10-16T11:15:43;3.20;;;0.55;;
64643;SDS011;51056;50.330;7.914;2022-10-16T11:18:45;1.50;;;0.50;;
64643;SDS011;51056;50.330;7.914;2022-10-16T11:22:04;5.00;;;0.52;;
64643;SDS011;51056;50.330;7.914;2022-10-16T11:28:34;1.40;;;0.28;;
64643;SDS011;51056;50.330;7.914;2022-10-16T11:31:46;2.75;;;0.40;;
64643;SDS011;51056;50.330;7.914;2022-10-16T11:35:05;2.03;;;0.75;;
64643;SDS011;51056;50.330;7.914;2022-10-16T11:41:59;2.47;;;0.40;;
64643;SDS011;51056;50.330;7.914;2022-10-16T11:48:23;2.50;;;0.30;;
64643;SDS011;51056;50.330;7.914;2022-10-16T11:51:35;2.03;;;0.30;;
64643;SDS011;51056;50.330;7.914;2022-10-16T11:54:51;0.85;;;0.40;;
64643;SDS011;51056;50.330;7.914;2022-10-16T11:58:07;5.30;;;1.75;;
64643;SDS011;51056;50.330;7.914;2022-10-16T12:01:18;1.50;;;0.43;;
64643;SDS011;51056;50.330;7.914;2022-10-16T12:04:34;1.15;;;0.25;;
64643;SDS011;51056;50.330;7.914;2022-10-16T12:07:59;2.08;;;0.38;;
64643;SDS011;51056;50.330;7.914;2022-10-16T12:11:36;4.47;;;1.50;;
64643;SDS011;51056;50.330;7.914;2022-10-16T12:14:42;1.27;;;0.32;;
64643;SDS011;51056;50.330;7.914;2022-10-16T12:17:46;0.65;;;0.20;;
64643;SDS011;51056;50.330;7.914;2022-10-16T12:20:54;1.30;;;0.30;;
64643;SDS011;51056;50.330;7.914;2022-10-16T12:24:27;3.95;;;0.60;;
64643;SDS011;51056;50.330;7.914;2022-10-16T12:27:36;1.92;;;0.35;;
64643;SDS011;51056;50.330;7.914;2022-10-16T12:30:41;2.70;;;0.40;;
64643;SDS011;51056;50.330;7.914;2022-10-16T12:40:29;1.00;;;0.25;;
64643;SDS011;51056;50.330;7.914;2022-10-16T12:43:40;0.77;;;0.10;;
64643;SDS011;51056;50.330;7.914;2022-10-16T12:46:46;0.75;;;0.20;;
64643;SDS011;51056;50.330;7.914;2022-10-16T12:49:54;3.85;;;0.28;;
64643;SDS011;51056;50.330;7.914;2022-10-16T12:53:03;5.68;;;3.40;;
64643;SDS011;51056;50.330;7.914;2022-10-16T12:56:25;3.08;;;1.60;;
64643;SDS011;51056;50.330;7.914;2022-10-16T12:59:42;2.88;;;1.10;;
64643;SDS011;51056;50.330;7.914;2022-10-16T13:02:59;1.25;;;0.32;;
64643;SDS011;51056;50.330;7.914;2022-10-16T13:06:28;9.18;;;0.95;;
64643;SDS011;51056;50.330;7.914;2022-10-16T13:10:05;3.45;;;0.30;;
64643;SDS011;51056;50.330;7.914;2022-10-16T13:13:47;7.15;;;0.50;;
64643;SDS011;51056;50.330;7.914;2022-10-16T13:20:30;1.30;;;0.30;;
64643;SDS011;51056;50.330;7.914;2022-10-16T13:23:48;3.33;;;0.57;;
64643;SDS011;51056;50.330;7.914;2022-10-16T13:30:51;3.97;;;0.50;;
64643;SDS011;51056;50.330;7.914;2022-10-16T13:33:57;1.35;;;0.20;;
64643;SDS011;51056;50.330;7.914;2022-10-16T13:37:15;2.80;;;1.92;;
64643;SDS011;51056;50.330;7.914;2022-10-16T13:40:24;2.17;;;0.30;;
64643;SDS011;51056;50.330;7.914;2022-10-16T13:43:29;2.33;;;0.40;;
64643;SDS011;51056;50.330;7.914;2022-10-16T13:46:43;2.22;;;0.55;;
64643;SDS011;51056;50.330;7.914;2022-10-16T13:49:58;1.15;;;0.40;;
64643;SDS011;51056;50.330;7.914;2022-10-16T13:53:06;1.92;;;0.57;;
64643;SDS011;51056;50.330;7.914;2022-10-16T13:56:17;3.75;;;0.40;;
64643;SDS011;51056;50.330;7.914;2022-10-16T13:59:32;4.65;;;2.22;;
64643;SDS011;51056;50.330;7.914;2022-10-16T14:02:45;13.48;;;2.72;;
64643;SDS011;51056;50.330;7.914;2022-10-16T14:05:56;4.90;;;3.28;;
64643;SDS011;51056;50.330;7.914;2022-10-16T14:09:09;4.10;;;2.17;;
64643;SDS011;51056;50.330;7.914;2022-10-16T14:12:24;4.33;;;3.17;;
64643;SDS011;51056;50.330;7.914;2022-10-16T14:15:34;10.20;;;9.07;;
64643;SDS011;51056;50.330;7.914;2022-10-16T14:18:39;4.03;;;3.63;;
64643;SDS011;51056;50.330;7.914;2022-10-16T14:21:43;4.82;;;2.40;;
64643;SDS011;51056;50.330;7.914;2022-10-16T14:24:47;3.05;;;0.70;;
64643;SDS011;51056;50.330;7.914;2022-10-16T14:34:34;20.92;;;5.63;;
64643;SDS011;51056;50.330;7.914;2022-10-16T14:37:39;14.88;;;6.95;;
64643;SDS011;51056;50.330;7.914;2022-10-16T14:40:47;6.70;;;4.57;;
64643;SDS011;51056;50.330;7.914;2022-10-16T14:43:54;3.13;;;1.80;;
64643;SDS011;51056;50.330;7.914;2022-10-16T14:47:07;5.00;;;2.10;;
64643;SDS011;51056;50.330;7.914;2022-10-16T14:50:41;11.80;;;4.78;;
64643;SDS011;51056;50.330;7.914;2022-10-16T14:53:47;16.30;;;9.55;;
64643;SDS011;51056;50.330;7.914;2022-10-16T14:56:56;7.80;;;4.93;;
64643;SDS011;51056;50.330;7.914;2022-10-16T15:00:02;4.75;;;2.10;;
64643;SDS011;51056;50.330;7.914;2022-10-16T15:03:07;9.93;;;2.58;;
64643;SDS011;51056;50.330;7.914;2022-10-16T15:06:12;15.02;;;6.68;;
64643;SDS011;51056;50.330;7.914;2022-10-16T15:09:17;8.25;;;2.83;;
64643;SDS011;51056;50.330;7.914;2022-10-16T15:12:21;3.97;;;1.38;;
64643;SDS011;51056;50.330;7.914;2022-10-16T15:15:25;4.10;;;0.60;;
64643;SDS011;51056;50.330;7.914;2022-10-16T15:18:37;8.32;;;0.82;;
64643;SDS011;51056;50.330;7.914;2022-10-16T15:21:42;4.80;;;0.80;;
64643;SDS011;51056;50.330;7.914;2022-10-16T15:24:46;9.25;;;0.90;;
64643;SDS011;51056;50.330;7.914;2022-10-16T15:27:51;9.20;;;0.57;;
64643;SDS011;51056;50.330;7.914;2022-10-16T15:30:55;9.23;;;1.20;;
64643;SDS011;51056;50.330;7.914;2022-10-16T15:34:01;7.80;;;0.70;;
64643;SDS011;51056;50.330;7.914;2022-10-16T15:37:08;7.13;;;0.80;;
64643;SDS011;51056;50.330;7.914;2022-10-16T15:40:12;6.88;;;0.75;;
64643;SDS011;51056;50.330;7.914;2022-10-16T15:43:16;13.27;;;1.10;;
64643;SDS011;51056;50.330;7.914;2022-10-16T15:46:22;11.23;;;2.25;;
64643;SDS011;51056;50.330;7.914;2022-10-16T15:49:28;6.75;;;0.88;;
64643;SDS011;51056;50.330;7.914;2022-10-16T15:52:35;8.27;;;1.10;;
64643;SDS011;51056;50.330;7.914;2022-10-16T15:55:42;10.35;;;0.90;;
64643;SDS011;51056;50.330;7.914;2022-10-16T15:58:47;11.80;;;1.10;;
64643;SDS011;51056;50.330;7.914;2022-10-16T16:01:51;9.88;;;0.98;;
64643;SDS011;51056;50.330;7.914;2022-10-16T16:04:55;16.80;;;3.00;;
64643;SDS011;51056;50.330;7.914;2022-10-16T16:08:00;18.38;;;1.42;;
64643;SDS011;51056;50.330;7.914;2022-10-16T16:11:07;17.08;;;1.60;;
64643;SDS011;51056;50.330;7.914;2022-10-16T16:14:15;9.05;;;1.45;;
64643;SDS011;51056;50.330;7.914;2022-10-16T16:17:21;13.43;;;2.83;;
64643;SDS011;51056;50.330;7.914;2022-10-16T16:20:31;14.70;;;2.67;;
64643;SDS011;51056;50.330;7.914;2022-10-16T16:23:39;12.50;;;1.75;;
64643;SDS011;51056;50.330;7.914;2022-10-16T16:26:45;9.65;;;1.40;;
64643;SDS011;51056;50.330;7.914;2022-10-16T16:29:52;24.27;;;2.22;;
64643;SDS011;51056;50.330;7.914;2022-10-16T16:33:00;17.88;;;2.10;;
64643;SDS011;51056;50.330;7.914;2022-10-16T16:36:08;10.27;;;2.13;;
64643;SDS011;51056;50.330;7.914;2022-10-16T16:39:16;17.13;;;1.67;;
64643;SDS011;51056;50.330;7.914;2022-10-16T16:42:26;9.38;;;1.75;;
64643;SDS011;51056;50.330;7.914;2022-10-16T16:45:36;9.60;;;1.10;;
64643;SDS011;51056;50.330;7.914;2022-10-16T16:48:45;13.30;;;1.23;;
64643;SDS011;51056;50.330;7.914;2022-10-16T16:51:55;10.27;;;3.75;;
64643;SDS011;51056;50.330;7.914;2022-10-16T16:55:02;10.98;;;2.42;;
64643;SDS011;51056;50.330;7.914;2022-10-16T18:04:46;13.82;;;1.60;;
64643;SDS011;51056;50.330;7.914;2022-10-16T18:07:53;9.88;;;1.30;;
64643;SDS011;51056;50.330;7.914;2022-10-16T18:11:00;29.35;;;8.23;;
64643;SDS011;51056;50.330;7.914;2022-10-16T18:14:05;14.80;;;3.10;;
64643;SDS011;51056;50.330;7.914;2022-10-16T18:17:11;15.60;;;2.20;;
64643;SDS011;51056;50.330;7.914;2022-10-16T18:20:20;9.00;;;1.50;;
64643;SDS011;51056;50.330;7.914;2022-10-16T18:23:28;15.15;;;1.98;;
64643;SDS011;51056;50.330;7.914;2022-10-16T18:26:36;11.38;;;1.40;;
64643;SDS011;51056;50.330;7.914;2022-10-16T18:29:44;14.68;;;3.20;;
64643;SDS011;51056;50.330;7.914;2022-10-16T18:32:53;15.40;;;2.03;;
64643;SDS011;51056;50.330;7.914;2022-10-16T18:36:05;15.35;;;2.72;;
64643;SDS011;51056;50.330;7.914;2022-10-16T19:57:28;9.88;;;2.25;;
64643;SDS011;51056;50.330;7.914;2022-10-16T20:00:39;35.50;;;2.80;;
64643;SDS011;51056;50.330;7.914;2022-10-16T20:03:45;41.75;;;3.13;;
64643;SDS011;51056;50.330;7.914;2022-10-16T20:06:51;24.25;;;2.75;;
64643;SDS011;51056;50.330;7.914;2022-10-16T20:13:54;22.95;;;2.75;;
64643;SDS011;51056;50.330;7.914;2022-10-16T20:16:58;25.27;;;2.53;;
64643;SDS011;51056;50.330;7.914;2022-10-16T20:20:05;33.20;;;2.88;;
64643;SDS011;51056;50.330;7.914;2022-10-16T20:23:19;48.45;;;3.53;;
64643;SDS011;51056;50.330;7.914;2022-10-16T20:26:24;22.70;;;3.25;;
64643;SDS011;51056;50.330;7.914;2022-10-16T20:29:27;23.98;;;3.72;;
64643;SDS011;51056;50.330;7.914;2022-10-16T20:32:35;22.30;;;2.90;;
64643;SDS011;51056;50.330;7.914;2022-10-16T20:35:44;12.65;;;2.78;;
64643;SDS011;51056;50.330;7.914;2022-10-16T20:38:50;11.35;;;2.78;;
64643;SDS011;51056;50.330;7.914;2022-10-16T20:41:55;22.50;;;2.38;;
64643;SDS011;51056;50.330;7.914;2022-10-16T20:44:59;19.33;;;2.40;;
64643;SDS011;51056;50.330;7.914;2022-10-16T20:48:04;15.00;;;2.70;;
64643;SDS011;51056;50.330;7.914;2022-10-16T20:51:14;33.15;;;4.07;;
64643;SDS011;51056;50.330;7.914;2022-10-16T20:54:32;15.93;;;3.05;;
64643;SDS011;51056;50.330;7.914;2022-10-16T20:57:36;16.90;;;3.05;;
64643;SDS011;51056;50.330;7.914;2022-10-16T21:00:39;15.65;;;3.03;;
64643;SDS011;51056;50.330;7.914;2022-10-16T21:03:43;22.77;;;2.92;;
64643;SDS011;51056;50.330;7.914;2022-10-16T21:06:51;23.05;;;3.08;;
64643;SDS011;51056;50.330;7.914;2022-10-16T21:10:02;19.40;;;3.38;;
64643;SDS011;51056;50.330;7.914;2022-10-16T21:13:06;15.82;;;2.25;;
64643;SDS011;51056;50.330;7.914;2022-10-16T21:16:10;32.45;;;3.15;;
64643;SDS011;51056;50.330;7.914;2022-10-16T21:19:16;36.40;;;3.85;;
64643;SDS011;51056;50.330;7.914;2022-10-16T21:22:22;24.83;;;4.32;;
64643;SDS011;51056;50.330;7.914;2022-10-16T21:25:27;46.10;;;3.90;;
64643;SDS011;51056;50.330;7.914;2022-10-16T21:28:32;15.00;;;3.08;;
64643;SDS011;51056;50.330;7.914;2022-10-16T21:31:37;26.27;;;2.88;;
64643;SDS011;51056;50.330;7.914;2022-10-16T21:34:43;25.27;;;3.70;;
64643;SDS011;51056;50.330;7.914;2022-10-16T21:37:49;22.13;;;3.22;;
64643;SDS011;51056;50.330;7.914;2022-10-16T21:40:52;34.13;;;4.22;;
64643;SDS011;51056;50.330;7.914;2022-10-16T21:43:58;58.40;;;4.13;;
64643;SDS011;51056;50.330;7.914;2022-10-16T21:47:02;35.00;;;3.22;;
64643;SDS011;51056;50.330;7.914;2022-10-16T21:50:06;19.52;;;3.28;;
64643;SDS011;51056;50.330;7.914;2022-10-16T21:53:09;43.25;;;3.47;;
64643;SDS011;51056;50.330;7.914;2022-10-16T21:56:14;37.97;;;3.40;;
64643;SDS011;51056;50.330;7.914;2022-10-16T21:59:29;17.13;;;2.90;;
64643;SDS011;51056;50.330;7.914;2022-10-16T22:02:33;31.20;;;3.22;;
64643;SDS011;51056;50.330;7.914;2022-10-16T22:05:37;33.35;;;3.83;;
64643;SDS011;51056;50.330;7.914;2022-10-16T22:08:40;29.58;;;3.45;;
64643;SDS011;51056;50.330;7.914;2022-10-16T22:11:46;29.92;;;3.42;;
64643;SDS011;51056;50.330;7.914;2022-10-16T22:14:52;14.02;;;3.03;;
64643;SDS011;51056;50.330;7.914;2022-10-16T22:17:56;18.65;;;3.17;;
64643;SDS011;51056;50.330;7.914;2022-10-16T22:21:00;42.42;;;4.10;;
64643;SDS011;51056;50.330;7.914;2022-10-16T22:24:08;29.00;;;4.00;;
64643;SDS011;51056;50.330;7.914;2022-10-16T22:27:12;19.83;;;3.85;;
64643;SDS011;51056;50.330;7.914;2022-10-16T22:30:16;71.75;;;5.65;;
64643;SDS011;51056;50.330;7.914;2022-10-16T22:33:19;14.32;;;3.97;;
64643;SDS011;51056;50.330;7.914;2022-10-16T22:36:24;22.80;;;4.68;;
64643;SDS011;51056;50.330;7.914;2022-10-16T22:39:33;34.25;;;4.80;;
64643;SDS011;51056;50.330;7.914;2022-10-16T22:42:37;29.13;;;5.63;;
64643;SDS011;51056;50.330;7.914;2022-10-16T22:45:41;21.27;;;4.30;;
64643;SDS011;51056;50.330;7.914;2022-10-16T22:48:44;26.05;;;5.45;;
64643;SDS011;51056;50.330;7.914;2022-10-16T22:51:48;24.92;;;4.95;;
64643;SDS011;51056;50.330;7.914;2022-10-16T22:55:00;14.80;;;4.88;;
64643;SDS011;51056;50.330;7.914;2022-10-16T22:58:08;31.13;;;5.28;;
64643;SDS011;51056;50.330;7.914;2022-10-16T23:01:13;25.88;;;6.03;;